Aeroporto :
LOGIN :

Iscrizione | Disclaimer

   EN    FR    IT 

 










Sommario :    VFR   VFR Marginale   IFR   IFR Intensivo   IFR Molto Intensivo
Visibilità : 
Base nubi : 
>= 8 km
>= 3000ft
5 / 8 km
1000 / 3000 ft
1500m / 5 km
500 / 1000 ft
800 / 1500m
200 / 500 ft
< 800m
< 200 ft
Simboli :   Temporali  Nebbia  Neve Forte  Precipitazioni Forti  Vento > 20 kt
SIGMETs :   Varie  Temporali  Ghiacco  Turbolenza  Onda orograficha  Ceneri Vulcaniche







- Altitudine del aeroporto : 788 ft
- Codice IATA : DCM
- Carte del aeroporto


LFCK - Castres-Mazamet

ULTIMO METAR :
  • 221130Z AUTO 12013KT 090V150 9999 ///TCU 18/06 Q1003 BECMG 13018G28KT NSC

METARs OBSOLETI :
  • 221100Z AUTO 19004KT 120V240 9999 ///TCU 17/06 Q1004 BECMG 11015G25KT NSC
  • 221030Z AUTO 11012KT 080V150 9999 ///TCU 16/07 Q1004 BECMG 11015G25KT NSC
  • 221000Z AUTO VRB03KT 9999 ///TCU 17/09 Q1005 BECMG 11015G25KT NSC
  • 220930Z AUTO 33004KT 280V360 CAVOK 15/09 Q1005 BECMG 11015G25KT
  • 220900Z AUTO VRB01KT CAVOK 14/06 Q1006 BECMG 11015G25KT

TAF TAF LFCK
Valido dal 22 a 12 ore il 22 a 21 ore UTC


221100Z 2212/2221 11010KT CAVOK
BECMG 2212/2214 13018G28KT
PROB40 2214/2218 12012KT
Nessun NOTAM noto per questo aeroporto.



MetMap, La meteo Aeronautica in un colpo d'occhio ! - Copyright ORBIFLY Dicembre 2007 - Disclaimer

ORBIFLY MET'MAP TEAM :

Programmazione e sviluppo : Alexandra Zaïnal
Concezione e sviluppo : Baudouin d'Aumeries
Co-Programmazione e sviluppo : Marc-Olivier Méhu
Supporto tecnico e logistico : Manuel Goepfert
Aiuto per la traduzione : Arnaldo La Scala

Contatto : metmap@orbifly.com




FONTI E CREDITI :

   NOAA